Time;durP1;ratioP1;P1;durP2;ratioP2;P2;SDS_P1;SDS_P2;PMS_P1;PMS_P2;Temp;Humidity;BMP_temperature;BMP_pressure;BME280_temperature;BME280_humidity;BME280_pressure;Samples;Min_cycle;Max_cycle;Signal;HPM_P1;HPM_P2
2021/07/09 00:01:30;;;;;;;11.65;3.67;;;17.00;99.90;;;15.76;100.00;103387.66;5023246;28;20069;-70
2021/07/09 00:03:57;;;;;;;9.10;3.58;;;17.00;99.90;;;15.73;100.00;103324.00;5031456;28;20048;-69
2021/07/09 00:06:23;;;;;;;10.10;4.20;;;17.00;99.90;;;15.82;100.00;103328.19;5021964;28;20056;-70
2021/07/09 00:08:50;;;;;;;7.25;4.50;;;17.00;99.90;;;15.87;100.00;103251.00;5013340;28;20067;-70
2021/07/09 00:11:17;;;;;;;9.00;4.75;;;17.10;99.90;;;15.99;100.00;103165.63;5010701;28;20146;-70
2021/07/09 00:13:45;;;;;;;9.75;4.97;;;17.30;99.90;;;16.12;100.00;103205.97;5023664;28;20021;-70
2021/07/09 00:16:17;;;;;;;11.45;5.47;;;17.40;99.90;;;16.22;100.00;103151.63;4993412;28;20033;-70
2021/07/09 00:18:44;;;;;;;11.35;5.38;;;17.40;99.90;;;16.34;100.00;103127.28;4993245;28;20028;-69
2021/07/09 00:21:11;;;;;;;9.63;5.32;;;17.50;99.90;;;16.41;100.00;103135.91;5009199;28;20427;-70
2021/07/09 00:23:37;;;;;;;9.88;5.45;;;17.60;99.90;;;16.47;100.00;103094.97;5011693;28;20029;-70
2021/07/09 00:26:03;;;;;;;11.38;5.47;;;17.60;99.90;;;16.39;100.00;103036.72;5010081;28;20063;-70
2021/07/09 00:28:30;;;;;;;9.70;5.68;;;17.60;99.90;;;16.47;100.00;103032.00;4988852;28;20075;-70
2021/07/09 00:30:55;;;;;;;12.77;6.05;;;17.60;99.90;;;16.52;100.00;102888.25;5010177;28;20025;-69
2021/07/09 00:33:21;;;;;;;13.73;6.45;;;17.60;99.90;;;16.49;100.00;102966.34;5012052;28;20045;-70
2021/07/09 00:35:47;;;;;;;11.20;6.53;;;17.70;99.90;;;16.58;100.00;102975.78;5012510;28;20061;-70
2021/07/09 00:38:13;;;;;;;14.70;8.00;;;17.80;99.90;;;16.61;100.00;102938.47;5010467;28;20025;-70
2021/07/09 00:40:39;;;;;;;17.20;7.75;;;17.80;99.90;;;16.59;100.00;102938.50;5010686;28;24852;-70
2021/07/09 00:43:05;;;;;;;15.90;8.82;;;17.80;99.90;;;16.66;100.00;102821.25;4994086;28;20044;-71
2021/07/09 00:45:31;;;;;;;13.43;8.82;;;17.80;99.90;;;16.71;100.00;102824.59;5009761;28;20363;-70
2021/07/09 00:47:57;;;;;;;13.70;8.95;;;17.90;99.90;;;16.89;100.00;102838.97;4994476;28;20087;-71
2021/07/09 00:50:24;;;;;;;13.40;8.35;;;18.00;99.90;;;16.88;100.00;102869.19;5010192;28;20017;-69
2021/07/09 00:52:50;;;;;;;12.00;7.85;;;18.00;99.90;;;16.85;100.00;102987.25;5010271;28;20053;-70
2021/07/09 00:55:18;;;;;;;13.60;6.88;;;18.00;99.90;;;16.90;100.00;102928.53;4992821;28;20064;-70
2021/07/09 00:57:51;;;;;;;10.90;6.65;;;18.00;99.90;;;17.00;100.00;102962.72;5009561;28;20468;-70
2021/07/09 01:00:20;;;;;;;10.45;6.60;;;18.10;99.90;;;16.97;100.00;102898.09;5010300;28;20053;-69
2021/07/09 01:02:47;;;;;;;12.90;6.78;;;18.10;99.90;;;16.94;100.00;102821.91;5005169;28;20052;-70
2021/07/09 01:05:16;;;;;;;11.48;6.05;;;18.10;99.90;;;17.04;100.00;102901.38;5011834;28;20029;-70
2021/07/09 01:07:42;;;;;;;10.38;6.20;;;18.20;99.90;;;17.10;100.00;102936.59;5020427;28;20415;-71
2021/07/09 01:10:15;;;;;;;9.32;6.13;;;18.20;99.90;;;17.05;100.00;102911.97;5020793;28;20024;-70
2021/07/09 01:12:42;;;;;;;11.20;6.32;;;18.20;99.90;;;17.05;100.00;102839.25;5020969;28;20492;-71
2021/07/09 01:15:13;;;;;;;7.38;4.90;;;18.20;99.90;;;17.07;100.00;102800.13;5011807;28;20054;-69
2021/07/09 01:17:40;;;;;;;13.02;5.75;;;18.20;99.90;;;17.17;100.00;102860.91;5013637;28;20033;-70
2021/07/09 01:20:11;;;;;;;10.48;5.80;;;18.30;99.90;;;17.14;100.00;102842.38;5021503;28;20026;-70
2021/07/09 01:22:42;;;;;;;10.23;5.50;;;18.30;99.90;;;17.27;100.00;102829.44;5021814;28;20109;-70
2021/07/09 01:25:22;;;;;;;13.32;6.05;;;18.30;99.90;;;17.17;100.00;102772.19;5030204;28;20190;-70
2021/07/09 01:27:54;;;;;;;12.73;5.07;;;18.30;99.90;;;17.14;100.00;102756.34;5014923;28;20045;-70
2021/07/09 01:30:23;;;;;;;9.18;4.80;;;18.40;99.90;;;17.14;100.00;102735.06;5030555;28;20028;-69
2021/07/09 01:32:54;;;;;;;10.02;4.78;;;18.30;99.90;;;17.18;100.00;102684.28;5020504;28;20024;-70
2021/07/09 01:35:26;;;;;;;7.15;4.88;;;18.30;99.90;;;17.13;100.00;102637.53;5002535;28;21316;-69
2021/07/09 01:38:06;;;;;;;6.90;5.35;;;18.30;99.90;;;17.13;100.00;102677.44;5029862;28;20021;-70
2021/07/09 01:40:35;;;;;;;13.18;6.07;;;18.30;99.90;;;17.09;100.00;102832.88;5018688;28;20026;-71
2021/07/09 01:43:03;;;;;;;12.73;5.47;;;18.30;99.90;;;17.09;100.00;102774.31;5017132;28;20112;-70
2021/07/09 01:45:29;;;;;;;12.98;5.10;;;18.30;99.90;;;17.07;100.00;102827.59;5016615;28;20037;-70
2021/07/09 01:47:57;;;;;;;10.55;5.80;;;18.20;99.90;;;17.16;100.00;102823.69;5020453;28;20433;-70
2021/07/09 01:50:25;;;;;;;13.10;5.40;;;18.30;99.90;;;17.20;100.00;102764.09;5002255;28;20036;-71
2021/07/09 01:52:52;;;;;;;15.27;5.35;;;18.30;99.90;;;17.19;100.00;102706.44;5023114;28;20473;-70
2021/07/09 01:55:19;;;;;;;7.47;5.80;;;18.30;99.90;;;17.15;100.00;102713.72;5021357;28;20388;-70
2021/07/09 01:57:46;;;;;;;10.27;5.95;;;18.30;99.90;;;17.04;100.00;102769.19;5018870;28;20052;-70
2021/07/09 02:00:22;;;;;;;15.15;5.70;;;18.30;99.90;;;17.08;100.00;102733.50;5021186;28;20037;-70
2021/07/09 02:02:48;;;;;;;13.88;5.78;;;18.20;99.90;;;16.99;100.00;102694.84;5021248;28;20511;-71
2021/07/09 02:05:18;;;;;;;13.93;5.85;;;18.20;99.90;;;16.96;100.00;102679.03;5022894;28;20420;-70
2021/07/09 02:07:47;;;;;;;10.98;5.60;;;18.20;99.90;;;16.90;100.00;102775.06;5032757;28;20021;-70
2021/07/09 02:10:18;;;;;;;9.93;5.75;;;18.10;99.90;;;16.98;100.00;102807.56;5025128;28;20147;-71
2021/07/09 02:12:44;;;;;;;15.55;5.55;;;18.10;99.90;;;16.98;100.00;102759.66;5015906;28;20025;-71
2021/07/09 02:15:16;;;;;;;10.55;5.70;;;18.10;99.90;;;16.96;100.00;102756.19;5024454;28;20079;-71
2021/07/09 02:17:44;;;;;;;15.25;5.93;;;18.20;99.90;;;16.94;100.00;102715.47;5021593;28;20033;-71
2021/07/09 02:20:15;;;;;;;10.65;6.20;;;18.10;99.90;;;16.98;100.00;102740.16;5025648;28;20084;-70
2021/07/09 02:22:42;;;;;;;10.00;5.57;;;18.00;99.90;;;16.87;100.00;102707.78;5023482;28;20057;-70
2021/07/09 02:25:08;;;;;;;11.27;6.38;;;18.00;99.90;;;16.76;100.00;102698.44;5025784;28;20481;-71
2021/07/09 02:27:38;;;;;;;17.00;6.72;;;18.00;99.90;;;16.83;100.00;102746.13;5021484;28;20053;-71
2021/07/09 02:30:07;;;;;;;14.90;6.05;;;17.90;99.90;;;16.72;100.00;102734.09;5041122;28;20024;-70
2021/07/09 02:32:33;;;;;;;9.90;5.57;;;18.00;99.90;;;16.76;100.00;102708.22;5027775;28;20025;-70
2021/07/09 02:34:59;;;;;;;7.57;5.97;;;17.90;99.90;;;16.63;100.00;102683.03;5033606;28;20476;-70
2021/07/09 02:37:25;;;;;;;15.10;6.00;;;17.80;99.90;;;16.67;100.00;102669.56;5021712;28;20119;-71
2021/07/09 02:39:51;;;;;;;16.85;5.70;;;17.90;99.90;;;16.67;100.00;102628.78;5024878;28;20021;-70
2021/07/09 02:42:17;;;;;;;10.38;5.72;;;17.90;99.90;;;16.63;100.00;102603.25;5023931;28;20123;-70
2021/07/09 02:44:43;;;;;;;13.23;5.90;;;17.80;99.90;;;16.65;100.00;102675.88;5023589;28;20061;-70
2021/07/09 02:47:09;;;;;;;16.95;6.10;;;17.90;99.90;;;16.65;100.00;103801.97;5006619;28;20414;-70
2021/07/09 02:49:35;;;;;;;11.57;6.90;;;17.90;99.90;;;16.72;100.00;103438.19;5038053;28;20024;-70
2021/07/09 02:52:01;;;;;;;14.52;6.40;;;18.00;99.90;;;16.75;100.00;103257.19;5023950;28;20044;-71
2021/07/09 02:54:27;;;;;;;11.63;6.40;;;18.00;99.90;;;16.81;100.00;103155.91;5006353;28;20045;-70
2021/07/09 02:56:53;;;;;;;12.35;7.00;;;18.00;99.90;;;16.75;100.00;102997.31;5007233;28;20029;-69
2021/07/09 02:59:19;;;;;;;14.68;6.60;;;17.90;99.90;;;16.75;100.00;103020.41;5022337;28;20041;-71
2021/07/09 03:01:45;;;;;;;10.27;6.93;;;18.00;99.90;;;16.86;100.00;102913.59;5014927;28;20053;-70
2021/07/09 03:04:12;;;;;;;13.48;6.85;;;18.10;99.90;;;16.89;100.00;102950.72;5006395;28;20040;-70
2021/07/09 03:06:40;;;;;;;16.63;7.10;;;18.10;99.90;;;16.93;100.00;102827.28;5013461;28;20037;-69
2021/07/09 03:09:06;;;;;;;14.77;7.43;;;18.10;99.90;;;16.94;100.00;102770.50;5017511;28;20036;-70
2021/07/09 03:11:34;;;;;;;14.20;7.15;;;18.10;99.90;;;16.93;100.00;102836.16;5007980;28;20415;-70
2021/07/09 03:14:01;;;;;;;18.67;6.95;;;18.10;99.90;;;16.97;100.00;102791.63;5022939;28;20064;-71
2021/07/09 03:16:27;;;;;;;13.05;7.00;;;18.20;99.90;;;17.01;100.00;102758.66;5023310;28;20423;-70
2021/07/09 03:18:53;;;;;;;14.38;7.15;;;18.20;99.90;;;17.04;100.00;102846.38;5021746;28;20543;-71
2021/07/09 03:21:19;;;;;;;12.82;6.85;;;18.20;99.90;;;17.00;100.00;102826.13;5033523;28;20033;-70
2021/07/09 03:23:45;;;;;;;14.15;6.93;;;18.20;99.90;;;17.01;100.00;102780.81;5022208;28;20041;-71
2021/07/09 03:26:11;;;;;;;12.35;7.10;;;18.10;99.90;;;16.91;100.00;102968.41;5022352;28;20130;-69
2021/07/09 03:28:37;;;;;;;11.55;6.45;;;18.10;99.90;;;16.91;100.00;102842.44;5020915;28;20017;-70
2021/07/09 03:31:03;;;;;;;10.60;6.28;;;18.20;99.90;;;16.98;100.00;102833.31;5023984;28;20025;-70
2021/07/09 03:33:30;;;;;;;12.85;6.82;;;18.20;99.90;;;16.95;100.00;102743.81;5022168;28;20068;-70
2021/07/09 03:35:56;;;;;;;11.63;6.82;;;18.20;99.90;;;17.13;100.00;102867.28;5020715;28;20082;-69
2021/07/09 03:38:22;;;;;;;11.35;6.93;;;18.30;99.90;;;17.16;100.00;102821.03;5023056;28;20032;-71
2021/07/09 03:40:49;;;;;;;11.27;6.85;;;18.30;99.90;;;17.10;100.00;102850.56;5021669;28;20059;-71
2021/07/09 03:43:14;;;;;;;10.40;7.13;;;18.30;99.90;;;17.19;100.00;102824.44;5024005;28;20063;-69
2021/07/09 03:45:41;;;;;;;13.80;7.55;;;18.40;99.90;;;17.12;100.00;102756.41;5024202;28;20025;-70
2021/07/09 03:48:07;;;;;;;9.88;6.95;;;18.30;99.90;;;17.16;100.00;102951.47;5014795;28;20063;-70
2021/07/09 03:50:33;;;;;;;11.98;6.57;;;18.40;99.90;;;17.18;100.00;102726.00;5006448;28;20038;-70
2021/07/09 03:52:59;;;;;;;14.27;5.80;;;18.40;99.90;;;17.22;100.00;102645.09;5022039;28;20111;-71
2021/07/09 03:55:25;;;;;;;11.10;6.45;;;18.40;99.90;;;17.22;100.00;102666.38;5024432;28;20059;-70
2021/07/09 03:57:51;;;;;;;11.25;5.97;;;18.40;99.90;;;17.23;100.00;102676.09;5017890;28;20029;-70
2021/07/09 04:00:18;;;;;;;10.88;5.72;;;18.50;99.90;;;17.31;100.00;102638.50;5022067;28;20044;-71
2021/07/09 04:02:44;;;;;;;9.43;5.90;;;18.50;99.90;;;17.34;100.00;102655.19;5023206;28;20489;-71
2021/07/09 04:05:11;;;;;;;8.38;5.72;;;18.50;99.90;;;17.45;100.00;102624.53;4990653;28;20041;-71
2021/07/09 04:07:39;;;;;;;12.45;5.70;;;18.60;99.90;;;17.47;100.00;102604.03;5022727;28;20105;-71
2021/07/09 04:10:07;;;;;;;8.73;4.72;;;18.70;99.90;;;17.51;100.00;102705.03;5020606;28;20040;-70
2021/07/09 04:12:33;;;;;;;13.73;5.45;;;18.80;99.90;;;17.52;100.00;102727.22;5013903;28;20111;-71
2021/07/09 04:14:59;;;;;;;10.68;5.22;;;18.70;99.90;;;17.52;100.00;102594.06;5031721;28;20106;-70
2021/07/09 04:17:25;;;;;;;11.02;5.10;;;18.70;99.90;;;17.68;100.00;102615.50;5007081;28;20063;-70
2021/07/09 04:19:51;;;;;;;6.93;5.15;;;18.90;99.90;;;17.61;100.00;102581.16;5020141;28;20036;-71
2021/07/09 04:22:19;;;;;;;14.65;5.18;;;18.80;99.90;;;17.71;100.00;102621.56;5023432;28;20028;-70
2021/07/09 04:24:45;;;;;;;13.50;4.70;;;18.90;99.90;;;17.68;100.00;102648.31;5019586;28;20120;-71
2021/07/09 04:27:13;;;;;;;11.13;5.00;;;18.90;99.90;;;17.72;100.00;102668.56;5021132;28;20452;-71
2021/07/09 04:29:39;;;;;;;9.05;5.03;;;18.90;99.90;;;17.83;100.00;102732.06;5003460;28;20048;-71
2021/07/09 04:32:06;;;;;;;10.35;4.68;;;19.00;99.90;;;17.80;100.00;102777.47;5022868;28;20560;-70
2021/07/09 04:34:33;;;;;;;8.27;4.35;;;19.00;99.90;;;17.85;100.00;102785.28;5004177;28;20116;-71
2021/07/09 04:36:59;;;;;;;12.18;4.20;;;19.00;99.90;;;17.88;100.00;102734.50;5018161;28;20527;-70
2021/07/09 04:39:24;;;;;;;10.50;4.18;;;19.00;99.90;;;17.86;100.00;102843.84;5021867;28;20025;-71
2021/07/09 04:41:50;;;;;;;5.18;3.78;;;19.00;99.90;;;17.88;100.00;102815.31;5019308;28;20029;-72
2021/07/09 04:44:16;;;;;;;5.57;3.63;;;19.00;99.90;;;17.94;100.00;102819.53;5004985;28;20099;-70
2021/07/09 04:46:42;;;;;;;11.07;3.17;;;19.00;99.90;;;17.94;100.00;102819.53;5004923;28;20087;-71
2021/07/09 04:49:09;;;;;;;9.27;3.63;;;19.10;99.90;;;17.99;100.00;102796.19;5021156;28;20502;-70
2021/07/09 04:51:35;;;;;;;8.20;3.63;;;19.20;99.90;;;18.03;100.00;102721.38;5028814;28;20057;-71
2021/07/09 04:54:01;;;;;;;8.68;3.72;;;19.20;99.90;;;18.16;100.00;102864.72;5021376;28;20104;-71
2021/07/09 04:56:27;;;;;;;8.50;3.45;;;19.30;99.90;;;18.11;100.00;102878.28;5021732;28;20393;-70
2021/07/09 04:58:53;;;;;;;6.78;2.90;;;19.40;99.90;;;18.19;100.00;102872.63;5041292;28;20501;-70
2021/07/09 05:01:19;;;;;;;13.00;3.40;;;19.40;99.90;;;18.19;100.00;105291.66;5044359;28;20037;-71
2021/07/09 05:03:45;;;;;;;30.38;8.00;;;19.40;99.90;;;18.24;100.00;106173.97;5019214;28;20132;-70
2021/07/09 05:06:11;;;;;;;9.80;3.30;;;19.50;99.90;;;18.28;100.00;105283.59;5005945;28;20033;-70
2021/07/09 05:08:37;;;;;;;7.53;2.75;;;19.50;99.90;;;18.39;100.00;104553.22;5020294;28;20037;-71
2021/07/09 05:11:04;;;;;;;10.88;3.20;;;19.50;99.90;;;18.13;100.00;104324.34;5017895;28;20029;-70
2021/07/09 05:13:30;;;;;;;4.15;2.92;;;19.30;99.90;;;17.98;100.00;104184.22;5012114;28;20037;-71
2021/07/09 05:15:56;;;;;;;4.90;2.50;;;19.20;99.90;;;18.10;100.00;104191.06;5020140;28;20052;-71
2021/07/09 05:18:22;;;;;;;9.35;3.22;;;19.30;99.90;;;18.07;100.00;103809.81;5022065;28;20029;-70
2021/07/09 05:20:48;;;;;;;7.32;3.38;;;19.20;99.90;;;18.22;100.00;103547.13;5002487;28;20244;-71
2021/07/09 05:23:14;;;;;;;4.25;2.58;;;19.30;99.90;;;18.04;100.00;103437.50;5013491;28;20114;-70
2021/07/09 05:25:40;;;;;;;5.93;2.70;;;19.30;99.90;;;18.19;100.00;103579.25;5011684;28;20021;-71
2021/07/09 05:28:06;;;;;;;4.38;2.65;;;19.40;99.90;;;18.18;100.00;103482.34;5011490;28;20454;-70
2021/07/09 05:30:33;;;;;;;6.45;2.50;;;19.30;99.90;;;18.21;100.00;103540.06;5021515;28;20040;-71
2021/07/09 05:32:59;;;;;;;8.65;2.72;;;19.40;99.90;;;18.19;100.00;103392.56;5004086;28;20079;-70
2021/07/09 05:35:25;;;;;;;6.88;3.10;;;19.40;99.90;;;18.21;100.00;103396.94;5010188;28;20489;-71
2021/07/09 05:37:51;;;;;;;7.22;2.58;;;19.50;99.90;;;18.38;100.00;103273.59;5003629;28;20044;-71
2021/07/09 05:40:17;;;;;;;8.32;3.00;;;19.50;99.90;;;18.43;100.00;103250.28;5019228;28;20017;-71
2021/07/09 05:42:44;;;;;;;5.15;2.08;;;19.70;99.90;;;18.52;100.00;103238.38;5019992;28;20366;-70
2021/07/09 05:45:11;;;;;;;5.88;2.45;;;19.70;99.90;;;18.67;100.00;103268.91;5039443;28;20047;-69
2021/07/09 05:47:39;;;;;;;5.07;2.28;;;19.90;99.90;;;18.83;100.00;103267.38;5013631;28;20021;-71
2021/07/09 05:50:07;;;;;;;8.52;2.40;;;19.90;99.90;;;18.76;100.00;103179.56;5028309;28;20040;-70
2021/07/09 05:52:33;;;;;;;7.93;2.25;;;19.90;99.90;;;18.79;100.00;103126.09;5020459;28;20056;-71
2021/07/09 05:54:59;;;;;;;4.10;2.33;;;20.00;99.90;;;18.84;100.00;102958.63;5016854;28;20496;-71
2021/07/09 05:57:25;;;;;;;4.95;2.28;;;20.10;99.90;;;19.02;100.00;102900.81;5000685;28;20454;-71
2021/07/09 05:59:51;;;;;;;5.90;2.17;;;20.10;99.90;;;18.98;100.00;102940.13;5008601;28;20446;-70
2021/07/09 06:02:17;;;;;;;3.83;1.85;;;20.10;99.90;;;18.98;100.00;102996.19;5022646;28;20048;-70
2021/07/09 06:04:43;;;;;;;6.05;2.00;;;20.10;99.90;;;18.97;100.00;103079.06;5004090;28;20049;-71
2021/07/09 06:07:09;;;;;;;5.63;2.22;;;20.10;99.90;;;18.97;100.00;103010.50;5020966;28;20041;-70
2021/07/09 06:09:35;;;;;;;11.02;2.20;;;20.00;99.90;;;18.75;100.00;102858.47;5021360;28;20389;-69
2021/07/09 06:12:00;;;;;;;10.30;2.70;;;20.00;99.90;;;18.84;100.00;102873.22;5003801;28;20022;-70
2021/07/09 06:14:26;;;;;;;9.52;2.53;;;20.10;99.90;;;18.85;100.00;102808.19;5022137;28;20172;-70
2021/07/09 06:16:52;;;;;;;5.38;2.45;;;20.00;99.90;;;18.90;100.00;102806.19;5019403;28;20017;-70
2021/07/09 06:19:18;;;;;;;7.47;2.40;;;20.00;99.90;;;18.84;100.00;102753.97;5030974;28;20048;-71
2021/07/09 06:21:44;;;;;;;3.45;2.10;;;20.00;99.90;;;18.84;100.00;102769.97;5018694;28;20385;-71
2021/07/09 06:24:10;;;;;;;7.05;2.47;;;20.00;99.90;;;18.82;100.00;102720.28;5004646;28;20163;-70
2021/07/09 06:26:36;;;;;;;6.68;2.28;;;20.00;99.90;;;18.75;100.00;102673.47;5017644;28;20175;-71
2021/07/09 06:29:03;;;;;;;4.90;2.13;;;20.00;99.90;;;18.72;100.00;102674.47;5031326;28;20025;-70
2021/07/09 06:31:29;;;;;;;8.68;2.75;;;20.00;99.90;;;18.87;100.00;102666.66;5003223;28;20400;-71
2021/07/09 06:33:55;;;;;;;6.50;2.28;;;20.00;99.90;;;18.87;100.00;102639.97;5020132;28;20520;-71
2021/07/09 06:36:21;;;;;;;4.28;2.05;;;20.00;99.90;;;18.86;100.00;102628.44;5018267;28;20098;-70
2021/07/09 06:38:47;;;;;;;5.65;2.00;;;20.20;99.90;;;18.95;100.00;102608.41;5002749;28;20021;-71
2021/07/09 06:41:14;;;;;;;4.85;2.75;;;20.10;99.90;;;18.84;100.00;102657.88;5019616;28;20021;-70
2021/07/09 06:43:40;;;;;;;12.10;2.50;;;20.20;99.90;;;19.02;100.00;102626.69;5018538;28;20099;-70
2021/07/09 06:46:06;;;;;;;4.53;2.13;;;20.10;99.90;;;18.99;100.00;102602.84;5022544;28;20029;-70
2021/07/09 06:48:32;;;;;;;5.15;2.28;;;20.10;99.90;;;18.92;100.00;102580.09;5021107;28;20037;-71
2021/07/09 06:50:58;;;;;;;9.52;2.65;;;20.10;99.90;;;18.95;100.00;102585.25;5017169;28;20211;-70
2021/07/09 06:53:24;;;;;;;5.15;2.03;;;20.10;99.90;;;18.84;100.00;102566.28;5024950;28;20150;-71
2021/07/09 06:55:50;;;;;;;8.13;2.67;;;20.00;99.90;;;18.87;100.00;102544.75;5022117;28;20033;-71
2021/07/09 06:58:16;;;;;;;7.90;2.55;;;20.10;99.90;;;18.94;100.00;102601.34;5006950;28;20029;-70
2021/07/09 07:00:42;;;;;;;7.50;3.05;;;20.30;99.90;;;19.10;100.00;102522.19;5022073;28;20029;-71
2021/07/09 07:03:08;;;;;;;7.53;3.10;;;20.20;99.90;;;18.97;100.00;102481.94;5024176;28;20503;-71
2021/07/09 07:05:34;;;;;;;8.35;3.00;;;20.20;99.90;;;19.10;100.00;102542.69;5024079;28;20108;-70
2021/07/09 07:08:23;;;;;;;7.00;3.40;;;20.20;99.90;;;19.11;100.00;102531.91;5023090;28;20392;-70
2021/07/09 07:10:52;;;;;;;7.55;3.08;;;20.40;99.90;;;19.19;100.00;102599.09;5020017;28;20070;-70
2021/07/09 07:13:20;;;;;;;6.13;2.95;;;20.30;99.90;;;19.04;100.00;102551.88;5022881;28;20036;-71
2021/07/09 07:15:46;;;;;;;5.00;2.60;;;20.30;99.90;;;19.10;100.00;102529.34;5015113;28;20017;-69
2021/07/09 07:18:12;;;;;;;6.68;2.58;;;20.20;99.90;;;18.92;100.00;102516.03;5022973;28;20025;-71
2021/07/09 07:20:42;;;;;;;6.60;3.30;;;20.10;99.90;;;18.88;100.00;102525.16;5022866;28;20504;-71
2021/07/09 07:23:15;;;;;;;8.68;3.05;;;20.10;99.90;;;18.86;100.00;102508.34;5022359;28;20112;-71
2021/07/09 07:25:43;;;;;;;6.60;2.92;;;20.10;99.90;;;18.87;100.00;102470.03;5024131;28;20021;-70
2021/07/09 07:28:09;;;;;;;8.63;3.30;;;20.10;99.90;;;19.00;100.00;102446.19;5023117;28;20033;-71
2021/07/09 07:30:36;;;;;;;8.07;2.63;;;20.10;99.90;;;19.08;100.00;102446.66;5018497;28;20032;-71
2021/07/09 07:33:03;;;;;;;6.15;2.85;;;20.10;99.90;;;18.92;100.00;102429.72;5000899;28;20103;-70
2021/07/09 07:35:30;;;;;;;11.15;3.10;;;20.10;99.90;;;18.91;100.00;102402.19;5032781;28;20037;-70
2021/07/09 07:37:56;;;;;;;7.88;2.92;;;20.00;99.90;;;18.78;100.00;102390.47;5006190;28;20025;-70
2021/07/09 07:40:23;;;;;;;6.13;2.92;;;20.00;99.90;;;19.01;100.00;102395.41;5022357;28;20018;-70
2021/07/09 07:42:49;;;;;;;5.32;3.10;;;20.10;99.90;;;19.08;100.00;102403.06;5022915;28;20017;-70
2021/07/09 07:45:15;;;;;;;7.95;3.55;;;20.10;99.90;;;19.02;100.00;102394.44;5020837;28;20618;-72
2021/07/09 07:47:42;;;;;;;6.28;3.17;;;20.10;99.90;;;19.05;100.00;102441.50;5011981;28;20053;-74
2021/07/09 07:50:10;;;;;;;4.95;2.70;;;20.20;99.90;;;19.00;100.00;102371.44;5024304;28;20160;-72
2021/07/09 07:52:37;;;;;;;8.05;3.35;;;20.20;99.90;;;19.07;100.00;102375.53;5006541;28;20385;-72
2021/07/09 07:55:04;;;;;;;9.40;3.28;;;20.20;99.90;;;18.99;100.00;102364.41;5022792;28;20039;-72
2021/07/09 07:57:30;;;;;;;3.67;2.53;;;20.20;99.90;;;19.13;100.00;102376.97;5031070;28;20017;-72
2021/07/09 07:59:56;;;;;;;4.50;2.88;;;20.30;99.90;;;19.28;100.00;102376.09;5022328;28;20029;-73
2021/07/09 08:02:22;;;;;;;5.05;2.17;;;20.40;99.90;;;19.21;99.79;102364.03;4993415;28;20057;-73
2021/07/09 08:04:48;;;;;;;4.40;2.20;;;20.20;99.90;;;19.08;100.00;102353.19;5021807;28;20396;-73
2021/07/09 08:07:32;;;;;;;6.18;2.40;;;20.30;99.90;;;19.12;100.00;102352.09;4995787;28;20037;-74
2021/07/09 08:10:19;;;;;;;4.28;2.20;;;20.30;99.90;;;19.11;100.00;102339.66;4989345;28;20043;-73
2021/07/09 08:12:52;;;;;;;5.53;2.45;;;20.30;99.90;;;19.15;100.00;102324.34;5005924;28;20396;-74
2021/07/09 08:15:40;;;;;;;5.90;1.90;;;20.30;99.90;;;19.12;99.90;105882.31;4961881;28;20032;-73
2021/07/09 08:18:24;;;;;;;6.00;2.28;;;20.20;99.90;;;19.05;99.96;104319.53;4953546;28;20067;-74
2021/07/09 08:20:55;;;;;;;4.97;2.10;;;20.20;99.90;;;19.08;99.28;103708.78;4965574;28;20044;-74
2021/07/09 08:23:41;;;;;;;5.15;1.98;;;20.20;99.90;;;19.01;100.00;103316.47;4976591;28;20064;-73
2021/07/09 08:26:23;;;;;;;5.13;2.25;;;20.20;99.90;;;19.08;99.89;103177.38;4983844;28;20056;-73
2021/07/09 08:29:06;;;;;;;4.82;1.73;;;20.10;99.90;;;18.74;100.00;103048.00;4956224;28;20167;-74
2021/07/09 08:32:29;;;;;;;7.45;2.67;;;19.90;99.90;;;18.58;100.00;102938.44;4978013;28;20059;-73
2021/07/09 08:36:01;;;;;;;5.72;2.00;;;19.70;99.90;;;18.69;100.00;102653.28;4983943;28;20104;-74
2021/07/09 08:39:16;;;;;;;3.10;2.05;;;19.60;99.90;;;18.42;100.00;102595.06;4984436;28;20230;-74
2021/07/09 08:42:28;;;;;;;6.38;2.25;;;19.60;99.90;;;18.20;100.00;102539.25;4987396;28;20108;-73
2021/07/09 08:45:34;;;;;;;5.10;2.22;;;19.30;99.90;;;18.02;100.00;102658.31;4970779;28;20048;-73
2021/07/09 08:48:59;;;;;;;5.68;2.50;;;19.20;99.90;;;17.98;100.00;102555.44;4988732;28;20095;-74
2021/07/09 08:52:12;;;;;;;6.20;2.92;;;19.20;99.90;;;18.11;100.00;102545.03;4981201;28;20408;-74
2021/07/09 08:55:36;;;;;;;3.70;2.47;;;19.30;99.90;;;18.09;100.00;102538.06;4983466;28;20109;-74
2021/07/09 08:59:13;;;;;;;4.97;2.55;;;19.30;99.90;;;18.10;100.00;102503.34;4995225;28;20069;-73
2021/07/09 09:03:25;;;;;;;6.40;3.00;;;19.30;99.90;;;18.27;100.00;102490.94;4989258;28;20052;-74
2021/07/09 09:07:31;;;;;;;5.10;2.67;;;19.30;99.90;;;18.07;100.00;102458.16;4985777;28;20047;-74
2021/07/09 09:11:12;;;;;;;4.60;2.78;;;19.20;99.90;;;18.06;100.00;102434.28;4975351;28;20091;-73
2021/07/09 09:15:35;;;;;;;4.57;2.35;;;19.30;99.90;;;18.03;100.00;102398.84;4965534;28;20059;-74
2021/07/09 09:20:02;;;;;;;4.85;2.10;;;19.20;99.90;;;18.01;100.00;102390.06;4996044;27;20529;-75
2021/07/09 09:23:58;;;;;;;8.95;2.50;;;19.20;99.90;;;18.19;100.00;102390.91;4983664;28;20627;-76
2021/07/09 09:27:59;;;;;;;3.55;2.35;;;19.30;99.90;;;18.12;100.00;102477.47;4944713;28;20034;-76
2021/07/09 09:36:02;;;;;;;7.00;2.80;;;19.30;99.90;;;18.06;100.00;102581.75;4953075;28;20034;-77
2021/07/09 09:40:08;;;;;;;8.30;3.55;;;19.30;99.90;;;18.14;100.00;102869.28;4950845;28;20034;-77
2021/07/09 09:44:07;;;;;;;6.28;2.83;;;19.40;99.90;;;18.22;100.00;102955.97;4941262;28;20125;-77
2021/07/09 09:47:50;;;;;;;10.25;2.63;;;19.30;99.90;;;17.98;100.00;102602.56;4937262;28;20093;-76
2021/07/09 09:51:56;;;;;;;6.43;2.47;;;19.20;99.90;;;17.90;100.00;102575.41;4948796;28;20042;-77
2021/07/09 09:55:28;;;;;;;7.32;2.30;;;19.20;99.90;;;18.08;100.00;102568.31;4944288;27;20038;-77
2021/07/09 09:59:26;;;;;;;4.18;2.50;;;19.20;99.90;;;18.11;100.00;102550.38;4935601;28;20038;-77
2021/07/09 10:03:15;;;;;;;4.25;1.98;;;19.10;99.90;;;17.90;100.00;102503.47;4954866;27;20048;-77
2021/07/09 10:07:10;;;;;;;10.57;2.30;;;19.00;99.90;;;17.77;100.00;102482.69;4949856;28;20034;-77
2021/07/09 10:10:55;;;;;;;5.32;2.35;;;19.00;99.90;;;17.80;100.00;102466.59;4923902;28;20201;-77
2021/07/09 10:14:08;;;;;;;5.05;2.80;;;18.90;99.90;;;17.67;100.00;102392.66;4967519;28;20038;-77
2021/07/09 10:17:50;;;;;;;4.65;2.50;;;18.90;99.90;;;17.72;100.00;102387.97;4939873;28;20599;-77
2021/07/09 10:21:09;;;;;;;5.45;2.30;;;18.90;99.90;;;17.68;100.00;102472.50;4952105;28;20050;-76
2021/07/09 10:24:06;;;;;;;3.75;2.05;;;18.90;99.90;;;17.62;100.00;102484.34;4980647;28;20449;-76
2021/07/09 10:27:07;;;;;;;6.07;2.55;;;18.80;99.90;;;17.55;100.00;102525.50;4953263;27;20046;-76
2021/07/09 10:30:14;;;;;;;4.10;2.10;;;18.80;99.90;;;17.65;100.00;102573.91;4921096;28;20046;-76
2021/07/09 10:33:24;;;;;;;7.47;1.92;;;18.70;99.90;;;17.45;100.00;102557.97;4924296;28;20116;-77
2021/07/09 10:35:50;;;;;;;2.50;1.70;;;18.60;99.90;;;17.19;100.00;102655.84;4925935;28;20045;-77
2021/07/09 10:38:19;;;;;;;2.75;1.58;;;18.40;99.90;;;17.08;100.00;102493.97;4946001;28;20367;-76
2021/07/09 10:40:46;;;;;;;6.50;1.60;;;18.30;99.90;;;16.89;100.00;102427.47;4973179;28;20121;-77
2021/07/09 10:43:17;;;;;;;3.58;1.98;;;18.10;99.90;;;16.71;100.00;102399.84;4937293;28;20045;-77
2021/07/09 10:45:45;;;;;;;4.28;1.75;;;18.00;99.90;;;16.70;100.00;102413.25;4946181;28;20470;-77
2021/07/09 10:48:17;;;;;;;5.10;1.95;;;18.00;99.90;;;16.70;100.00;102400.81;4962915;28;20033;-76